Time;durP1;ratioP1;P1;durP2;ratioP2;P2;SDS_P1;SDS_P2;PMS_P1;PMS_P2;Temp;Humidity;BMP_temperature;BMP_pressure;BME280_temperature;BME280_humidity;BME280_pressure;Samples;Min_cycle;Max_cycle;Signal;HPM_P1;HPM_P2
2021/12/06 00:01:23;;;;;;;12.90;2.70;;;7.70;99.90;;;;;;6153438;23;20529;-91
2021/12/06 00:03:57;;;;;;;14.00;2.38;;;7.70;99.90;;;;;;6152878;23;20349;-92
2021/12/06 00:06:26;;;;;;;15.60;2.97;;;7.70;99.90;;;;;;6152841;23;20010;-93
2021/12/06 00:08:52;;;;;;;;;;;7.70;99.90;;;;;;6153702;23;20056;-91
2021/12/06 00:11:18;;;;;;;11.63;2.42;;;7.70;99.90;;;;;;6153376;23;19904;-91
2021/12/06 00:13:48;;;;;;;10.13;2.50;;;7.70;99.90;;;;;;6154711;23;20052;-92
2021/12/06 00:16:28;;;;;;;;;;;;;;;;;;;;;
2021/12/06 00:18:54;;;;;;;12.43;2.67;;;7.70;99.90;;;;;;6154679;23;20076;-92
2021/12/06 00:21:22;;;;;;;15.25;2.70;;;7.70;99.90;;;;;;6154791;23;20009;-92
2021/12/06 00:23:48;;;;;;;11.63;2.55;;;7.70;99.90;;;;;;6154933;23;20009;-91
2021/12/06 00:26:14;;;;;;;14.82;2.42;;;7.70;99.90;;;;;;6155368;23;20024;-91
2021/12/06 00:28:43;;;;;;;9.68;2.28;;;7.70;99.90;;;;;;6154805;23;20388;-92
2021/12/06 00:31:11;;;;;;;13.75;2.53;;;7.60;99.90;;;;;;6154853;23;20033;-91
2021/12/06 00:33:37;;;;;;;10.15;2.30;;;7.60;99.90;;;;;;6154492;23;20060;-92
2021/12/06 00:36:06;;;;;;;13.70;2.50;;;7.50;99.90;;;;;;6154503;23;20013;-92
2021/12/06 00:38:34;;;;;;;15.40;2.53;;;7.50;99.90;;;;;;6155109;23;20006;-91
2021/12/06 00:41:03;;;;;;;13.15;2.83;;;7.50;99.90;;;;;;6155365;23;20002;-91
2021/12/06 00:43:29;;;;;;;11.70;2.10;;;7.60;99.90;;;;;;6154620;23;20080;-93
2021/12/06 00:45:55;;;;;;;14.65;2.47;;;7.50;99.90;;;;;;6154931;23;20058;-91
2021/12/06 00:48:23;;;;;;;8.35;2.20;;;7.50;99.90;;;;;;6154775;23;20229;-92
2021/12/06 00:50:52;;;;;;;12.60;2.42;;;7.50;99.90;;;;;;6154469;23;20032;-92
2021/12/06 00:53:18;;;;;;;11.60;2.22;;;7.50;99.90;;;;;;6154732;23;20010;-91
2021/12/06 00:56:11;;;;;;;9.48;2.10;;;7.50;99.90;;;;;;6154974;23;20327;-93
2021/12/06 00:58:43;;;;;;;11.25;2.45;;;7.50;99.90;;;;;;6042005;23;20038;-91
2021/12/06 01:01:41;;;;;;;11.45;2.95;;;7.50;99.90;;;;;;6145874;23;20430;-92
2021/12/06 01:04:57;;;;;;;;;;;;;;;;;;;;;
2021/12/06 01:07:23;;;;;;;10.18;2.67;;;7.60;99.90;;;;;;6143389;23;20076;-93
2021/12/06 01:10:19;;;;;;;12.70;2.90;;;7.60;99.90;;;;;;6154777;23;20044;-92
2021/12/06 01:13:07;;;;;;;;;;;;;;;;;;;;;
2021/12/06 01:15:46;;;;;;;10.95;2.80;;;7.60;99.90;;;;;;6155726;23;20097;-92
2021/12/06 01:18:59;;;;;;;13.98;2.90;;;7.60;99.90;;;;;;6154822;23;20009;-93
2021/12/06 01:21:54;;;;;;;15.98;3.05;;;7.60;99.90;;;;;;6154463;23;20006;-91
2021/12/06 01:31:02;;;;;;;16.17;2.53;;;7.60;99.90;;;;;;6159965;23;20010;-91
2021/12/06 01:41:40;;;;;;;10.25;3.15;;;7.50;99.90;;;;;;6155540;23;20012;-92
2021/12/06 01:44:14;;;;;;;10.77;3.25;;;7.50;99.90;;;;;;6153978;23;20016;-92
2021/12/06 01:46:56;;;;;;;15.20;2.80;;;7.50;99.90;;;;;;6154004;23;20013;-91
2021/12/06 01:49:24;;;;;;;12.43;3.25;;;7.60;99.90;;;;;;6154065;23;20012;-91
2021/12/06 01:51:58;;;;;;;14.07;2.85;;;7.50;99.90;;;;;;6154270;23;20375;-91
2021/12/06 01:54:26;;;;;;;10.77;2.60;;;7.60;99.90;;;;;;6153994;23;20006;-91
2021/12/06 01:57:03;;;;;;;;;;;;;;;;;;;;;
2021/12/06 01:59:32;;;;;;;11.63;2.33;;;7.50;99.90;;;;;;6155452;23;20081;-92
2021/12/06 02:01:58;;;;;;;7.88;2.25;;;7.50;99.90;;;;;;6154120;23;20056;-92
2021/12/06 02:04:25;;;;;;;8.13;2.25;;;7.50;99.90;;;;;;6154181;23;20009;-91
2021/12/06 02:06:51;;;;;;;9.55;2.55;;;7.50;99.90;;;;;;6153613;23;20497;-92
2021/12/06 02:09:20;;;;;;;14.30;3.50;;;7.50;99.90;;;;;;6154155;23;20013;-93
2021/12/06 02:11:54;;;;;;;10.48;2.88;;;7.50;99.90;;;;;;6154459;23;20005;-91
2021/12/06 02:17:26;;;;;;;7.25;2.80;;;7.30;99.90;;;;;;6155656;23;20016;-92
2021/12/06 02:20:22;;;;;;;12.43;2.85;;;7.30;99.90;;;;;;6153629;23;20008;-92
2021/12/06 02:22:47;;;;;;;12.70;3.55;;;7.30;99.90;;;;;;6154096;23;20044;-92
2021/12/06 02:25:17;;;;;;;14.05;4.22;;;7.30;99.90;;;;;;6153618;23;20002;-91
2021/12/06 02:27:49;;;;;;;15.88;3.97;;;7.30;99.90;;;;;;6154016;23;20006;-91
2021/12/06 02:30:17;;;;;;;11.82;3.10;;;7.20;99.90;;;;;;6154339;23;20010;-92
2021/12/06 02:33:35;;;;;;;9.13;2.67;;;7.20;99.90;;;;;;6153500;23;20442;-92
2021/12/06 02:36:26;;;;;;;10.57;2.53;;;7.20;99.90;;;;;;6069615;23;20014;-91
2021/12/06 02:39:03;;;;;;;12.27;3.10;;;7.10;99.90;;;;;;6153787;23;20144;-92
2021/12/06 02:42:15;;;;;;;8.38;2.60;;;7.20;99.90;;;;;;6153574;23;20461;-92
2021/12/06 02:45:14;;;;;;;9.77;2.83;;;7.20;99.90;;;;;;6153777;23;20025;-92
2021/12/06 02:48:02;;;;;;;;;;;;;;;;;;;;;
2021/12/06 02:54:48;;;;;;;;;;;;;;;;;;;;;
2021/12/06 03:00:28;;;;;;;15.57;3.40;;;7.30;99.90;;;;;;5979322;23;20023;-91
2021/12/06 03:03:44;;;;;;;;;;;;;;;;;;;;;
2021/12/06 03:06:16;;;;;;;13.27;3.25;;;7.20;99.90;;;;;;6143145;23;20088;-93
2021/12/06 03:08:57;;;;;;;12.18;2.95;;;7.20;99.90;;;;;;6153670;23;20425;-92
2021/12/06 03:24:17;;;;;;;;;;;;;;;;;;;;;
2021/12/06 03:30:20;;;;;;;;;;;;;;;;;;;;;
2021/12/06 03:33:39;;;;;;;;;;;;;;;;;;;;;
2021/12/06 03:45:50;;;;;;;18.20;3.70;;;7.40;99.90;;;;;;5980280;24;20060;-92
2021/12/06 03:48:23;;;;;;;15.55;4.07;;;7.40;99.90;;;;;;6166669;23;19997;-92
2021/12/06 03:51:32;;;;;;;18.67;3.03;;;7.50;99.90;;;;;;6153533;23;20005;-91
2021/12/06 03:53:57;;;;;;;;;;;7.40;99.90;;;;;;6153806;23;20438;-93
2021/12/06 03:56:46;;;;;;;;;;;;;;;;;;;;;
2021/12/06 03:59:45;;;;;;;17.42;3.70;;;7.40;99.90;;;;;;6156729;23;20119;-92
2021/12/06 04:05:31;;;;;;;10.90;2.78;;;7.40;99.90;;;;;;6141386;23;20029;-93
2021/12/06 04:08:29;;;;;;;;;;;;;;;;;;;;;
2021/12/06 04:11:26;;;;;;;15.57;2.78;;;7.50;99.90;;;;;;6157106;23;20124;-93
2021/12/06 04:20:22;;;;;;;15.18;2.60;;;7.60;99.90;;;;;;5983906;24;20015;-95
2021/12/06 04:22:48;;;;;;;11.38;2.90;;;7.50;99.90;;;;;;6043890;23;20034;-91
2021/12/06 04:25:26;;;;;;;21.98;2.70;;;7.50;99.90;;;;;;6071375;23;20058;-93
2021/12/06 04:27:55;;;;;;;13.40;2.35;;;7.50;99.90;;;;;;6066816;23;20010;-92
2021/12/06 04:30:51;;;;;;;14.48;2.53;;;7.50;99.90;;;;;;6067403;23;20011;-92
2021/12/06 04:33:17;;;;;;;9.23;2.38;;;7.50;99.90;;;;;;6083794;23;20040;-91
2021/12/06 04:35:45;;;;;;;16.90;2.80;;;7.40;99.90;;;;;;6154592;23;20452;-92
2021/12/06 04:38:11;;;;;;;19.33;3.63;;;7.40;99.90;;;;;;6154884;23;20006;-92
2021/12/06 04:40:38;;;;;;;15.75;2.60;;;7.30;99.90;;;;;;6155159;23;20390;-92
2021/12/06 04:46:57;;;;;;;20.60;3.50;;;7.30;99.90;;;;;;6083528;23;20006;-92
2021/12/06 04:49:58;;;;;;;17.73;2.78;;;7.20;99.90;;;;;;6154571;23;20005;-94
2021/12/06 04:52:55;;;;;;;;;;;;;;;;;;;;;
2021/12/06 04:56:00;;;;;;;;;;;;;;;;;;;;;
2021/12/06 04:58:51;;;;;;;;;;;;;;;;;;;;;
2021/12/06 05:01:39;;;;;;;12.00;2.40;;;7.20;99.90;;;;;;6155608;23;20085;-93
2021/12/06 05:04:11;;;;;;;;;;;7.10;99.90;;;;;;6154321;23;20005;-93
2021/12/06 05:06:43;;;;;;;10.02;2.58;;;7.10;99.90;;;;;;6155451;23;19909;-94
2021/12/06 05:09:23;;;;;;;11.38;2.65;;;7.00;99.90;;;;;;6154221;23;20006;-91
2021/12/06 05:14:53;;;;;;;;;;;;;;;;;;;;;
2021/12/06 05:17:35;;;;;;;20.48;3.83;;;6.80;99.90;;;;;;6155383;23;20093;-91
2021/12/06 05:20:08;;;;;;;13.88;3.22;;;6.80;99.90;;;;;;6148330;23;20002;-91
2021/12/06 05:22:43;;;;;;;12.38;3.30;;;6.70;99.90;;;;;;6152617;23;20013;-91
2021/12/06 05:25:09;;;;;;;10.95;3.28;;;6.60;99.90;;;;;;6153487;23;20029;-92
2021/12/06 05:27:43;;;;;;;11.82;3.67;;;6.60;99.90;;;;;;6153265;23;20009;-91
2021/12/06 05:30:11;;;;;;;13.25;3.40;;;6.70;99.90;;;;;;6153849;23;20092;-90
2021/12/06 05:32:37;;;;;;;12.75;3.00;;;6.70;99.90;;;;;;6153790;23;20015;-91
2021/12/06 05:35:09;;;;;;;12.15;3.13;;;6.70;99.90;;;;;;6153729;23;20093;-92
2021/12/06 05:38:19;;;;;;;;;;;;;;;;;;;;;
2021/12/06 05:41:02;;;;;;;15.55;3.40;;;6.80;99.90;;;;;;6150287;23;20088;-91
2021/12/06 05:43:28;;;;;;;12.13;3.67;;;6.70;99.90;;;;;;6154262;23;20010;-91
2021/12/06 05:45:57;;;;;;;9.98;3.53;;;6.60;99.90;;;;;;6153915;23;20010;-91
2021/12/06 05:48:31;;;;;;;12.60;3.40;;;6.60;99.90;;;;;;6154014;23;20085;-92
2021/12/06 05:50:57;;;;;;;13.73;3.63;;;6.50;99.90;;;;;;6154224;23;20462;-91
2021/12/06 05:53:22;;;;;;;14.88;3.85;;;6.50;99.90;;;;;;6154051;23;20012;-91
2021/12/06 05:55:53;;;;;;;14.95;3.63;;;6.50;99.90;;;;;;6154131;23;20005;-92
2021/12/06 06:01:14;;;;;;;12.40;3.60;;;6.40;99.90;;;;;;6155830;23;20064;-92
2021/12/06 06:03:39;;;;;;;10.48;3.45;;;6.40;99.90;;;;;;6154138;23;20016;-91
2021/12/06 06:06:17;;;;;;;16.20;3.63;;;6.50;99.90;;;;;;6154181;23;20353;-92
2021/12/06 06:08:51;;;;;;;19.45;3.67;;;6.30;99.90;;;;;;6154087;23;20006;-92
2021/12/06 06:11:21;;;;;;;9.82;2.97;;;6.30;99.90;;;;;;6153649;23;20127;-91
2021/12/06 06:13:50;;;;;;;13.98;3.70;;;6.30;99.90;;;;;;6153968;23;20010;-92
2021/12/06 06:16:54;;;;;;;;;;;6.30;99.90;;;;;;6154521;23;20096;-92
2021/12/06 06:19:42;;;;;;;14.63;4.05;;;6.50;99.90;;;;;;6095187;23;19921;-92
2021/12/06 06:26:00;;;;;;;13.18;3.42;;;6.10;99.90;;;;;;6031254;23;20004;-90
2021/12/06 06:49:35;;;;;;;;;;;;;;;;;;;;;
2021/12/06 06:56:05;;;;;;;;;;;;;;;;;;;;;
2021/12/06 06:58:58;;;;;;;;;;;;;;;;;;;;;
2021/12/06 07:01:48;;;;;;;13.98;3.55;;;6.50;99.90;;;;;;5821837;24;20258;-90
2021/12/06 07:05:04;;;;;;;;;;;;;;;;;;;;;
2021/12/06 07:11:44;;;;;;;;;;;;;;;;;;;;;
2021/12/06 07:21:42;;;;;;;;;;;;;;;;;;;;;
2021/12/06 07:31:39;;;;;;;;;;;;;;;;;;;;;
2021/12/06 07:41:17;;;;;;;;;;;;;;;;;;;;;
2021/12/06 07:51:07;;;;;;;;;;;;;;;;;;;;;
2021/12/06 08:07:37;;;;;;;;;;;;;;;;;;;;;
2021/12/06 08:14:32;;;;;;;;;;;;;;;;;;;;;
2021/12/06 08:17:46;;;;;;;;;;;;;;;;;;;;;
2021/12/06 08:24:08;;;;;;;;;;;;;;;;;;;;;
2021/12/06 08:36:26;;;;;;;;;;;;;;;;;;;;;
2021/12/06 08:39:51;;;;;;;;;;;;;;;;;;;;;
2021/12/06 08:43:16;;;;;;;;;;;;;;;;;;;;;
2021/12/06 08:46:42;;;;;;;;;;;;;;;;;;;;;
2021/12/06 08:56:14;;;;;;;11.70;3.53;;;7.50;99.90;;;;;;5817662;24;20015;-91
2021/12/06 08:59:23;;;;;;;11.98;3.65;;;7.50;99.90;;;;;;5817912;24;20011;-93
2021/12/06 09:06:06;;;;;;;;;;;;;;;;;;;;;
2021/12/06 09:16:11;;;;;;;22.15;5.38;;;7.90;99.90;;;;;;5857701;24;20089;-92
2021/12/06 09:25:47;;;;;;;;;;;;;;;;;;;;;
2021/12/06 09:31:23;;;;;;;12.87;4.17;;;8.20;99.90;;;;;;5843703;24;20349;-92
2021/12/06 09:34:12;;;;;;;13.68;4.28;;;8.20;99.90;;;;;;5868916;24;20740;-91
2021/12/06 09:53:48;;;;;;;;;;;;;;;;;;;;;
2021/12/06 10:02:32;;;;;;;15.57;3.28;;;8.70;99.90;;;;;;5841860;24;20026;-93
2021/12/06 10:05:29;;;;;;;14.85;3.60;;;8.70;99.90;;;;;;5897721;24;20037;-93
2021/12/06 10:12:11;;;;;;;;;;;;;;;;;;;;;
2021/12/06 10:24:53;;;;;;;15.27;3.10;;;8.60;99.90;;;;;;5984093;23;20056;-92
2021/12/06 10:27:53;;;;;;;;;;;;;;;;;;;;;
2021/12/06 10:31:12;;;;;;;;;;;;;;;;;;;;;
2021/12/06 10:34:29;;;;;;;;;;;;;;;;;;;;;
2021/12/06 10:37:46;;;;;;;;;;;;;;;;;;;;;
2021/12/06 10:40:38;;;;;;;;;;;;;;;;;;;;;
2021/12/06 10:44:04;;;;;;;;;;;;;;;;;;;;;
2021/12/06 10:54:08;;;;;;;8.57;2.53;;;8.80;99.90;;;;;;6108439;23;20018;-93
2021/12/06 11:07:05;;;;;;;13.10;2.78;;;8.80;99.90;;;;;;5980461;24;20493;-91
2021/12/06 11:12:46;;;;;;;18.75;3.03;;;8.90;99.90;;;;;;5952008;24;20064;-93
2021/12/06 11:15:24;;;;;;;13.40;2.83;;;8.90;99.90;;;;;;5973317;23;20012;-91
2021/12/06 11:18:25;;;;;;;;;;;;;;;;;;;;;
2021/12/06 11:31:57;;;;;;;;;;;;;;;;;;;;;
2021/12/06 11:38:48;;;;;;;;;;;;;;;;;;;;;
2021/12/06 11:49:31;;;;;;;;;;;;;;;;;;;;;
2021/12/06 12:45:03;;;;;;;;;;;;;;;;;;;;;
2021/12/06 12:48:30;;;;;;;;;;;;;;;;;;;;;
2021/12/06 13:18:50;;;;;;;14.68;3.08;;;9.30;99.90;;;;;;5651056;25;20349;-93
2021/12/06 15:57:34;;;;;;;;;;;;;;;;;;;;;
2021/12/06 16:04:34;;;;;;;;;;;;;;;;;;;;;
2021/12/06 16:07:07;;;;;;;;;;;;;;;;;;;;;
2021/12/06 16:09:53;;;;;;;;;;;;;;;;;;;;;
2021/12/06 16:20:20;;;;;;;;;;;;;;;;;;;;;
2021/12/06 16:23:39;;;;;;;;;;;;;;;;;;;;;
2021/12/06 16:44:47;;;;;;;38.60;14.32;;;8.90;99.90;;;;;;5762737;24;20019;-92
2021/12/06 16:48:30;;;;;;;;;;;;;;;;;;;;;
2021/12/06 16:55:05;;;;;;;;;;;;;;;;;;;;;
2021/12/06 17:01:52;;;;;;;;;;;;;;;;;;;;;
2021/12/06 17:05:20;;;;;;;60.53;22.15;;;8.70;99.90;;;;;;5891126;24;20452;-89
2021/12/06 17:08:35;;;;;;;;;;;;;;;;;;;;;
2021/12/06 17:15:41;;;;;;;;;;;;;;;;;;;;;
2021/12/06 17:32:57;;;;;;;;;;;;;;;;;;;;;
2021/12/06 20:56:43;;;;;;;;;;;;;;;;;;;;;
